createdAt,value
2019-02-20T00:03:17.084Z,0.40
2019-02-20T00:08:10.703Z,0.20
2019-02-20T00:13:02.156Z,0.10
2019-02-20T00:17:55.793Z,0.00
2019-02-20T00:22:47.250Z,-0.10
2019-02-20T00:27:40.851Z,-0.50
2019-02-20T00:32:32.283Z,-0.30
2019-02-20T00:37:25.876Z,-0.40
2019-02-20T00:42:17.291Z,-0.50
2019-02-20T00:47:08.736Z,-0.50
2019-02-20T00:52:00.185Z,-0.60
2019-02-20T00:56:51.520Z,-0.70
2019-02-20T01:01:45.170Z,-0.80
2019-02-20T01:06:36.615Z,-0.80
2019-02-20T01:11:28.032Z,-0.90
2019-02-20T01:16:19.417Z,-1.00
2019-02-20T01:21:10.811Z,-1.00
2019-02-20T01:26:02.184Z,-0.90
2019-02-20T01:30:53.591Z,-0.90
2019-02-20T01:35:44.992Z,-0.90
2019-02-20T01:40:36.393Z,-0.90
2019-02-20T01:45:27.817Z,-0.90
2019-02-20T01:50:19.197Z,-1.10
2019-02-20T01:55:10.585Z,-1.20
2019-02-20T02:00:02.039Z,-1.30
2019-02-20T02:04:53.414Z,-1.40
2019-02-20T02:09:44.801Z,-1.40
2019-02-20T02:14:38.389Z,-1.40
2019-02-20T02:24:23.464Z,-1.30
2019-02-20T02:29:19.359Z,-1.30
2019-02-20T02:34:10.922Z,-1.40
2019-02-20T02:39:02.164Z,-1.40
2019-02-20T02:44:00.412Z,-1.50
2019-02-20T02:48:51.879Z,-1.60
2019-02-20T02:53:43.336Z,-1.60
2019-02-20T02:58:34.672Z,-1.50
2019-02-20T03:08:19.637Z,-1.70
2019-02-20T03:13:13.337Z,-1.80
2019-02-20T03:18:07.039Z,-1.80
2019-02-20T03:23:02.960Z,-1.80
2019-02-20T03:27:56.679Z,-1.80
2019-02-20T03:32:50.358Z,-1.90
2019-02-20T03:37:41.781Z,-1.80
2019-02-20T03:42:33.120Z,-1.80
2019-02-20T03:47:24.633Z,-1.90
2019-02-20T03:52:16.049Z,-2.00
2019-02-20T03:57:07.384Z,-2.00
2019-02-20T04:02:01.092Z,-2.10
2019-02-20T04:06:54.795Z,-2.00
2019-02-20T04:11:46.247Z,-2.30
2019-02-20T04:16:42.143Z,-2.00
2019-02-20T04:21:35.796Z,-1.90
2019-02-20T04:26:27.271Z,-1.90
2019-02-20T04:31:18.646Z,-1.90
2019-02-20T04:36:10.072Z,-2.00
2019-02-20T04:41:01.489Z,-2.00
2019-02-20T04:45:52.993Z,-2.00
2019-02-20T04:50:46.583Z,-2.00
2019-02-20T04:55:38.026Z,-2.00
2019-02-20T05:00:29.379Z,-2.00
2019-02-20T05:05:23.120Z,-2.10
2019-02-20T05:15:10.466Z,0.30
2019-02-20T05:20:01.973Z,-1.80
2019-02-20T05:24:53.324Z,-1.70
2019-02-20T05:29:44.840Z,-1.70
2019-02-20T05:34:36.096Z,-1.60
2019-02-20T05:39:27.538Z,-1.60
2019-02-20T05:44:18.858Z,-1.60
2019-02-20T05:49:10.247Z,-1.50
2019-02-20T05:54:01.765Z,-1.30
2019-02-20T05:58:55.424Z,-1.50
2019-02-20T06:03:46.851Z,-1.50
2019-02-20T06:08:38.282Z,-1.50
2019-02-20T06:13:29.687Z,-1.60
2019-02-20T06:18:21.102Z,-1.70
2019-02-20T06:23:12.407Z,-1.60
2019-02-20T06:28:03.900Z,-1.70
2019-02-20T06:32:55.234Z,-1.70
2019-02-20T06:37:46.630Z,-1.60
2019-02-20T06:42:38.116Z,-1.60
2019-02-20T06:47:29.494Z,-1.60
2019-02-20T06:52:20.879Z,-1.40
2019-02-20T06:57:12.238Z,-1.30
2019-02-20T07:02:03.644Z,-1.10
2019-02-20T07:06:55.040Z,-1.00
2019-02-20T07:11:48.672Z,-0.90
2019-02-20T07:16:40.195Z,-0.90
2019-02-20T07:21:31.539Z,-0.80
2019-02-20T07:26:22.961Z,-0.70
2019-02-20T07:36:08.052Z,-0.40
2019-02-20T07:40:59.430Z,-0.30
2019-02-20T07:45:50.795Z,-0.10
2019-02-20T07:50:44.398Z,0.00
2019-02-20T07:55:35.873Z,0.00
2019-02-20T08:00:27.290Z,0.50
2019-02-20T08:05:18.671Z,0.50
2019-02-20T08:10:10.006Z,0.80
2019-02-20T08:15:01.495Z,1.20
2019-02-20T08:19:52.818Z,1.70
2019-02-20T08:24:44.233Z,1.90
2019-02-20T08:29:35.639Z,2.10
2019-02-20T08:34:27.024Z,2.50
2019-02-20T08:39:18.404Z,2.70
2019-02-20T08:44:09.834Z,3.00
2019-02-20T08:49:01.253Z,3.40
2019-02-20T08:53:54.903Z,3.70
2019-02-20T08:58:46.364Z,3.70
2019-02-20T09:03:37.818Z,4.10
2019-02-20T09:08:29.219Z,4.40
2019-02-20T09:13:20.541Z,5.00
2019-02-20T09:18:12.001Z,5.10
2019-02-20T09:23:05.542Z,5.80
2019-02-20T09:27:57.076Z,5.70
2019-02-20T09:32:48.568Z,6.30
2019-02-20T09:37:39.894Z,6.30
2019-02-20T09:42:31.422Z,6.60
2019-02-20T09:47:22.761Z,6.90
2019-02-20T09:52:14.157Z,7.30
2019-02-20T09:57:05.588Z,7.60
2019-02-20T10:01:57.000Z,8.10
2019-02-20T10:06:50.561Z,8.20
2019-02-20T10:11:42.060Z,8.20
2019-02-20T10:16:33.369Z,8.60
2019-02-20T10:21:24.891Z,8.90
2019-02-20T10:26:16.183Z,9.20
2019-02-20T10:31:07.684Z,9.10
2019-02-20T10:35:59.060Z,9.30
2019-02-20T10:40:50.531Z,9.50
2019-02-20T10:45:41.902Z,9.80
2019-02-20T10:50:33.320Z,10.50
2019-02-20T10:55:24.674Z,11.10
2019-02-20T11:00:25.021Z,11.00
2019-02-20T11:05:07.524Z,11.00
2019-02-20T11:10:01.177Z,11.20
2019-02-20T11:14:52.658Z,13.10
2019-02-20T11:19:44.078Z,11.30
2019-02-20T11:24:35.501Z,11.70
2019-02-20T11:29:26.875Z,12.00
2019-02-20T11:34:20.367Z,11.90
2019-02-20T11:39:11.553Z,11.50
2019-02-20T11:44:01.225Z,11.50
2019-02-20T11:48:52.588Z,11.40
2019-02-20T11:53:43.972Z,11.50
2019-02-20T11:58:35.377Z,11.70
2019-02-20T12:03:26.830Z,11.70
2019-02-20T12:08:18.186Z,11.50
2019-02-20T12:13:09.630Z,11.50
2019-02-20T12:18:01.026Z,11.60
2019-02-20T12:22:52.506Z,11.90
2019-02-20T12:27:43.935Z,12.10
2019-02-20T12:37:26.702Z,11.90
2019-02-20T12:42:18.144Z,11.90
2019-02-20T12:47:09.552Z,12.00
2019-02-20T12:52:01.023Z,11.90
2019-02-20T12:56:52.439Z,11.70
2019-02-20T13:01:43.796Z,11.70
2019-02-20T13:06:35.237Z,11.80
2019-02-20T13:11:26.671Z,11.80
2019-02-20T13:16:18.095Z,12.00
2019-02-20T13:21:11.670Z,11.90
2019-02-20T13:26:00.910Z,12.10
2019-02-20T13:30:52.271Z,12.20
2019-02-20T13:35:43.780Z,12.10
2019-02-20T13:40:35.107Z,12.20
2019-02-20T13:45:26.543Z,12.10
2019-02-20T13:50:17.898Z,12.00
2019-02-20T13:55:09.381Z,12.60
2019-02-20T14:00:00.971Z,13.10
2019-02-20T14:04:52.172Z,13.10
2019-02-20T14:09:43.608Z,12.90
2019-02-20T14:14:35.010Z,12.90
2019-02-20T14:19:26.377Z,12.80
2019-02-20T14:24:17.802Z,13.00
2019-02-20T14:29:09.135Z,13.00
2019-02-20T14:34:01.553Z,12.80
2019-02-20T14:38:51.930Z,13.00
2019-02-20T14:43:43.384Z,13.10
2019-02-20T14:48:34.933Z,12.80
2019-02-20T14:53:26.245Z,12.60
2019-02-20T14:58:18.052Z,12.60
2019-02-20T15:03:09.051Z,12.50
2019-02-20T15:08:02.516Z,12.40
2019-02-20T15:12:51.926Z,12.50
2019-02-20T15:17:43.280Z,12.50
2019-02-20T15:22:34.722Z,12.40
2019-02-20T15:27:29.577Z,12.20
2019-02-20T15:32:17.521Z,11.80
2019-02-20T15:37:08.962Z,11.80
2019-02-20T15:42:01.227Z,11.50
2019-02-20T15:46:51.771Z,11.30
2019-02-20T15:51:43.177Z,10.90
2019-02-20T15:56:34.592Z,10.90
2019-02-20T16:01:25.995Z,10.80
2019-02-20T16:06:17.436Z,10.70
2019-02-20T16:11:08.745Z,10.80
2019-02-20T16:16:00.242Z,10.50
2019-02-20T16:20:51.666Z,10.40
2019-02-20T16:25:45.107Z,10.20
2019-02-20T16:30:34.448Z,9.80
2019-02-20T16:35:25.815Z,9.70
2019-02-20T16:40:17.261Z,9.50
2019-02-20T16:45:08.585Z,8.60
2019-02-20T16:50:00.779Z,8.60
2019-02-20T16:54:51.420Z,8.30
2019-02-20T16:59:42.772Z,8.00
2019-02-20T17:04:34.193Z,7.60
2019-02-20T17:09:27.883Z,7.10
2019-02-20T17:14:19.321Z,7.00
2019-02-20T17:19:10.764Z,6.90
2019-02-20T17:24:02.162Z,6.80
2019-02-20T17:28:53.574Z,6.70
2019-02-20T17:33:45.716Z,6.70
2019-02-20T17:38:36.291Z,6.60
2019-02-20T17:43:27.736Z,6.60
2019-02-20T17:48:19.851Z,6.60
2019-02-20T17:53:10.544Z,6.50
2019-02-20T17:58:01.997Z,6.50
2019-02-20T18:02:53.363Z,6.30
2019-02-20T18:07:52.482Z,5.90
2019-02-20T18:12:36.103Z,5.80
2019-02-20T18:17:27.576Z,5.30
2019-02-20T18:22:18.930Z,5.00
2019-02-20T18:27:10.346Z,4.80
2019-02-20T18:32:01.856Z,4.60
2019-02-20T18:36:53.238Z,4.60
2019-02-20T18:41:44.595Z,4.50
2019-02-20T18:46:36.301Z,4.40
2019-02-20T18:51:27.403Z,4.50
2019-02-20T18:56:18.775Z,4.50
2019-02-20T19:01:10.235Z,4.20
2019-02-20T19:06:01.721Z,3.70
2019-02-20T19:10:55.218Z,3.50
2019-02-20T19:15:48.856Z,3.50
2019-02-20T19:20:42.271Z,3.40
2019-02-20T19:25:31.738Z,3.40
2019-02-20T19:30:23.185Z,3.30
2019-02-20T19:35:14.605Z,3.30
2019-02-20T19:40:05.934Z,3.20
2019-02-20T19:44:57.403Z,3.00
2019-02-20T19:49:51.051Z,2.90
2019-02-20T19:54:44.784Z,2.70
2019-02-20T19:59:36.370Z,2.70
2019-02-20T20:04:27.734Z,2.60
2019-02-20T20:14:12.815Z,2.60
2019-02-20T20:19:04.305Z,2.70
2019-02-20T20:23:55.601Z,2.90
2019-02-20T20:28:47.041Z,3.00
2019-02-20T20:33:38.339Z,3.20
2019-02-20T20:38:31.918Z,3.30
2019-02-20T20:43:23.398Z,3.30
2019-02-20T20:48:14.748Z,3.40
2019-02-20T20:53:06.193Z,3.20
2019-02-20T20:57:59.774Z,3.00
2019-02-20T21:02:51.321Z,3.00
2019-02-20T21:07:42.711Z,3.00
2019-02-20T21:12:34.131Z,2.80
2019-02-20T21:17:25.441Z,3.10
2019-02-20T21:22:16.916Z,3.00
2019-02-20T21:27:08.241Z,2.70
2019-02-20T21:32:01.622Z,2.50
2019-02-20T21:36:51.130Z,2.40
2019-02-20T21:41:42.574Z,2.30
2019-02-20T21:46:33.915Z,2.10
2019-02-20T21:51:25.370Z,1.90
2019-02-20T21:56:18.990Z,1.70
2019-02-20T22:01:10.396Z,1.60
2019-02-20T22:06:01.964Z,1.70
2019-02-20T22:15:47.668Z,1.40
2019-02-20T22:20:40.341Z,1.30
2019-02-20T22:25:29.746Z,1.20
2019-02-20T22:30:21.141Z,1.10
2019-02-20T22:35:14.744Z,0.90
2019-02-20T22:40:06.272Z,0.80
2019-02-20T22:44:57.551Z,0.90
2019-02-20T22:49:48.929Z,0.70
2019-02-20T22:54:40.350Z,0.60
2019-02-20T22:59:31.889Z,0.60
2019-02-20T23:04:23.117Z,0.60
2019-02-20T23:09:16.843Z,0.40
2019-02-20T23:14:08.190Z,0.40
2019-02-20T23:19:04.093Z,0.30
2019-02-20T23:23:55.518Z,0.00
2019-02-20T23:28:49.100Z,0.20
2019-02-20T23:33:40.581Z,0.20
2019-02-20T23:38:31.955Z,0.00
2019-02-20T23:43:23.358Z,-0.10
2019-02-20T23:48:19.220Z,-0.20
2019-02-20T23:58:06.584Z,-0.20
